aviador You're here:

CYHU Decoded Metar

MONTREAL in QC, CANADA
Report Time2017-04-25 20:00:00
UTC Time2017-04-25 20:23:09
Flight Rules vfr VFR
Wind160° at 12 kt
W.Decomp.*RWY 24: 5.3 kt HW 10.8 kt LCW
RWY 10: 2.9 kt HW 11.6 kt RCW
W.Rank160° ranks 18
Current wind is above 160° avg. (8.0)
Visibility9999 m
Phenomena:Light Rain
Clouds:Overcast 055 Hf
Expected CloudBase > 2,400 ft AGL from Temp-Dew spread
Ceiling5,500 ft
Temp14°C (ISA -1)
Dew Point08°C (67% RH)
AAT9.2°C
QNH1021 hPa
Density Alt-135 ft
Elevation89 ft
Report Wrong Elevation
Raw Report
CYHU 252000Z AUTO 16012KT 9SM -RA OVC055 14/08 A3016 RMK
SLP216=

Extra information for CYHU:More info

Metar Taf Metar & Taf Last 4 Metars F.Rules Stats Wind Profile Meteogram Temp Stats Airport Information Weather charts Add Link Nearby VenuesMetar ALERT Operation Metar Decoded Social comments